Terminal Aerodrome Forecast
Issued by NWS

Home | Current Version | Previous Version | Text Only | Print | Product List | Glossary On
Versions: 1 2 3 4 5 6 7 8 9 10 11 12 13 14 15 16 17 18 19
000
FTUS43 KDTX 190521
TAFDET
TAF
KDET 190521Z 1906/2006 30016G25KT P6SM BKN022 OVC035
     FM191100 28015G24KT P6SM SCT028 BKN040
     FM191700 27014G22KT P6SM BKN035 BKN060 PROB30 1918/1922 5SM
      -SHSN SCT028 OVC035
     FM200000 24010KT P6SM BKN040=

USA.gov is the U.S. government's official web portal to all federal, state and local government web resources and services.